createdAt,value
2022-12-05T00:02:30.441Z,5.40
2022-12-05T00:07:29.942Z,5.20
2022-12-05T00:12:28.168Z,5.40
2022-12-05T00:24:23.831Z,5.40
2022-12-05T00:29:22.030Z,5.60
2022-12-05T00:34:20.256Z,5.90
2022-12-05T00:39:18.565Z,5.60
2022-12-05T00:44:18.161Z,5.60
2022-12-05T00:49:16.355Z,5.70
2022-12-05T00:54:17.176Z,5.70
2022-12-05T00:59:19.343Z,5.70
2022-12-05T01:04:20.900Z,6.00
2022-12-05T01:09:21.365Z,5.80
2022-12-05T01:14:24.395Z,5.90
2022-12-05T01:19:24.802Z,6.10
2022-12-05T01:24:30.185Z,6.00
2022-12-05T01:29:29.807Z,5.90
2022-12-05T01:34:28.032Z,5.80
2022-12-05T01:39:26.315Z,5.70
2022-12-05T01:45:04.620Z,5.60
2022-12-05T01:50:02.930Z,5.70
2022-12-05T01:55:07.157Z,5.80
2022-12-05T02:00:12.236Z,5.70
2022-12-05T02:05:16.239Z,5.70
2022-12-05T02:10:14.963Z,6.00
2022-12-05T02:15:27.588Z,5.90
2022-12-05T02:20:42.769Z,6.00
2022-12-05T02:26:17.752Z,6.00
2022-12-05T02:31:20.053Z,5.80
2022-12-05T02:36:23.966Z,5.80
2022-12-05T02:41:28.932Z,6.00
2022-12-05T02:46:32.064Z,6.10
2022-12-05T02:52:07.977Z,6.20
2022-12-05T02:57:06.975Z,6.30
2022-12-05T03:02:06.544Z,6.40
2022-12-05T03:07:08.324Z,6.80
2022-12-05T03:12:11.850Z,6.40
2022-12-05T03:17:13.819Z,6.60
2022-12-05T03:22:19.705Z,6.50
2022-12-05T03:27:24.166Z,6.50
2022-12-05T03:32:27.701Z,6.80
2022-12-05T03:37:36.202Z,6.40
2022-12-05T03:42:38.621Z,6.40
2022-12-05T03:47:46.500Z,6.60
2022-12-05T03:53:17.990Z,6.60
2022-12-05T03:58:11.326Z,6.50
2022-12-05T04:03:15.396Z,6.40
2022-12-05T04:08:20.501Z,6.60
2022-12-05T04:13:23.300Z,6.30
2022-12-05T04:18:27.978Z,6.30
2022-12-05T04:23:27.645Z,6.30
2022-12-05T04:28:33.623Z,6.50
2022-12-05T04:33:39.219Z,6.10
2022-12-05T04:38:43.238Z,6.20
2022-12-05T04:44:12.562Z,6.30
2022-12-05T04:50:12.755Z,6.40
2022-12-05T04:55:14.940Z,6.40
2022-12-05T05:00:13.915Z,6.40
2022-12-05T05:06:13.869Z,6.40
2022-12-05T05:11:17.529Z,6.40
2022-12-05T05:17:05.260Z,6.70
2022-12-05T05:22:03.489Z,6.30
2022-12-05T05:27:03.031Z,6.10
2022-12-05T05:32:01.225Z,6.20
2022-12-05T05:36:59.440Z,6.20
2022-12-05T05:41:57.594Z,6.20
2022-12-05T05:46:57.206Z,6.20
2022-12-05T05:51:55.420Z,6.40
2022-12-05T06:03:43.582Z,6.50
2022-12-05T06:08:44.223Z,6.70
2022-12-05T06:13:43.019Z,6.50
2022-12-05T06:18:43.124Z,6.50
2022-12-05T06:23:41.485Z,6.50
2022-12-05T06:28:39.774Z,6.40
2022-12-05T06:33:38.308Z,6.20
2022-12-05T06:39:02.785Z,6.20
2022-12-05T06:44:02.566Z,6.30
2022-12-05T06:49:01.569Z,6.40
2022-12-05T06:53:59.797Z,6.60
2022-12-05T06:58:59.386Z,6.30
2022-12-05T07:03:57.672Z,6.30
2022-12-05T07:08:56.195Z,6.40
2022-12-05T07:13:54.500Z,6.70
2022-12-05T07:18:54.066Z,6.30
2022-12-05T07:23:52.414Z,6.30
2022-12-05T07:28:51.881Z,6.20
2022-12-05T07:33:50.435Z,6.20
2022-12-05T07:38:50.052Z,6.30
2022-12-05T07:43:48.295Z,6.30
2022-12-05T07:48:46.711Z,6.30
2022-12-05T07:53:45.186Z,6.10
2022-12-05T07:58:45.635Z,6.10
2022-12-05T08:03:45.009Z,6.40
2022-12-05T08:08:43.685Z,6.20
2022-12-05T08:14:14.841Z,6.20
2022-12-05T08:19:14.045Z,6.30
2022-12-05T08:25:03.350Z,6.30
2022-12-05T08:30:32.023Z,6.40
2022-12-05T08:35:30.206Z,6.30
2022-12-05T08:40:28.402Z,6.40
2022-12-05T08:45:26.808Z,6.30
2022-12-05T08:50:26.332Z,6.30
2022-12-05T08:55:24.500Z,6.60
2022-12-05T09:00:23.106Z,6.70
2022-12-05T09:12:11.337Z,6.30
2022-12-05T09:17:09.532Z,6.40
2022-12-05T09:22:07.649Z,6.60
2022-12-05T09:27:05.787Z,6.50
2022-12-05T09:32:05.787Z,6.40
2022-12-05T09:37:23.208Z,6.30
2022-12-05T09:42:45.057Z,6.40
2022-12-05T09:47:54.439Z,6.50
2022-12-05T09:53:03.348Z,6.60
2022-12-05T09:58:03.932Z,6.60
2022-12-05T10:03:14.334Z,6.60
2022-12-05T10:08:20.811Z,6.50
2022-12-05T10:13:31.985Z,6.40
2022-12-05T10:25:22.077Z,6.50
2022-12-05T10:30:22.081Z,6.50
2022-12-05T10:35:22.605Z,6.60
2022-12-05T10:40:22.477Z,6.90
2022-12-05T10:45:23.750Z,6.80
2022-12-05T10:57:27.428Z,6.70
2022-12-05T11:02:28.558Z,6.70
2022-12-05T11:07:31.811Z,6.90
2022-12-05T11:12:38.880Z,6.70
2022-12-05T11:18:18.960Z,6.80
2022-12-05T11:30:42.230Z,6.80
2022-12-05T11:36:03.786Z,6.60
2022-12-05T11:41:35.129Z,6.70
2022-12-05T11:46:46.070Z,6.60
2022-12-05T11:51:53.707Z,6.80
2022-12-05T11:56:55.914Z,6.90
2022-12-05T12:02:03.603Z,6.80
2022-12-05T12:07:25.620Z,6.90
2022-12-05T12:12:33.050Z,6.90
2022-12-05T12:17:43.734Z,6.90
2022-12-05T12:22:57.030Z,6.90
2022-12-05T12:28:05.947Z,6.90
2022-12-05T12:33:09.560Z,7.00
2022-12-05T12:38:37.779Z,7.00
2022-12-05T12:43:55.545Z,7.00
2022-12-05T12:49:10.846Z,6.90
2022-12-05T12:54:54.813Z,6.70
2022-12-05T12:59:55.301Z,6.80
2022-12-05T13:04:59.085Z,6.90
2022-12-05T13:10:03.636Z,6.90
2022-12-05T13:15:06.245Z,6.90
2022-12-05T13:20:32.136Z,6.50
2022-12-05T13:25:35.251Z,6.40
2022-12-05T13:30:54.190Z,6.20
2022-12-05T13:36:17.182Z,6.40
2022-12-05T13:41:35.049Z,6.50
2022-12-05T13:46:36.484Z,6.10
2022-12-05T13:58:47.809Z,6.00
2022-12-05T14:03:58.320Z,6.30
2022-12-05T14:08:56.542Z,6.80
2022-12-05T14:14:03.796Z,6.50
2022-12-05T14:26:08.995Z,6.70
2022-12-05T14:31:23.682Z,6.70
2022-12-05T14:36:30.831Z,6.90
2022-12-05T14:55:26.860Z,6.70
2022-12-05T15:00:25.583Z,6.70
2022-12-05T15:12:24.732Z,6.80
2022-12-05T15:17:27.915Z,6.80
2022-12-05T15:22:29.096Z,6.80
2022-12-05T15:27:28.653Z,6.80
2022-12-05T15:32:29.214Z,6.80
2022-12-05T15:37:33.849Z,6.90
2022-12-05T15:42:38.057Z,6.90
2022-12-05T15:47:36.292Z,7.20
2022-12-05T15:52:41.883Z,6.90
2022-12-05T15:57:47.424Z,7.10
2022-12-05T16:02:48.417Z,6.80
2022-12-05T16:07:48.172Z,7.10
2022-12-05T16:19:22.285Z,6.70
2022-12-05T16:24:22.715Z,6.70
2022-12-05T16:29:28.887Z,6.70
2022-12-05T16:34:30.205Z,6.70
2022-12-05T16:40:25.052Z,6.70
2022-12-05T16:45:39.637Z,6.70
2022-12-05T16:50:39.172Z,6.70
2022-12-05T16:56:27.689Z,6.70
2022-12-05T17:01:28.425Z,6.60
2022-12-05T17:06:28.475Z,7.00
2022-12-05T17:12:37.848Z,7.00
2022-12-05T17:17:36.029Z,6.80
2022-12-05T17:23:35.845Z,6.90
2022-12-05T17:29:41.648Z,6.60
2022-12-05T17:34:41.189Z,6.60
2022-12-05T17:39:39.341Z,6.60
2022-12-05T17:44:55.455Z,6.60
2022-12-05T17:49:55.072Z,6.60
2022-12-05T17:54:53.230Z,6.70
2022-12-05T17:59:51.429Z,6.50
2022-12-05T18:04:49.664Z,6.50
2022-12-05T18:16:44.056Z,6.40
2022-12-05T18:21:42.281Z,6.80
2022-12-05T18:26:40.509Z,6.40
2022-12-05T18:31:41.629Z,6.60
2022-12-05T18:43:36.888Z,6.40
2022-12-05T18:48:42.641Z,6.40
2022-12-05T19:00:06.519Z,6.40
2022-12-05T19:05:05.002Z,6.40
2022-12-05T19:10:03.947Z,6.40
2022-12-05T19:15:02.278Z,6.40
2022-12-05T19:20:01.912Z,6.40
2022-12-05T19:25:00.441Z,6.40
2022-12-05T19:29:59.317Z,6.40
2022-12-05T19:34:58.013Z,6.40
2022-12-05T19:39:58.113Z,6.40
2022-12-05T19:44:56.494Z,6.40
2022-12-05T19:49:54.707Z,6.40
2022-12-05T19:54:52.922Z,6.60
2022-12-05T19:59:52.566Z,6.40
2022-12-05T20:04:50.855Z,6.40
2022-12-05T20:09:49.145Z,6.40
2022-12-05T20:14:47.288Z,6.40
2022-12-05T20:19:46.812Z,6.60
2022-12-05T20:24:45.043Z,6.50
2022-12-05T20:29:43.439Z,6.40
2022-12-05T20:34:41.699Z,6.40
2022-12-05T20:39:41.283Z,6.40
2022-12-05T20:44:40.278Z,6.40
2022-12-05T20:49:38.495Z,6.40
2022-12-05T20:54:36.733Z,6.40
2022-12-05T20:59:36.367Z,6.40
2022-12-05T21:04:38.986Z,6.40
2022-12-05T21:09:37.147Z,6.40
2022-12-05T21:14:36.857Z,6.40
2022-12-05T21:19:35.061Z,6.30
2022-12-05T21:24:33.266Z,6.30
2022-12-05T21:29:31.577Z,6.30
2022-12-05T21:34:48.186Z,6.30
2022-12-05T21:39:46.426Z,6.30
2022-12-05T21:44:44.609Z,6.30
2022-12-05T21:56:23.798Z,6.30
2022-12-05T22:01:24.312Z,6.30
2022-12-05T22:06:22.685Z,6.30
2022-12-05T22:11:24.163Z,6.30
2022-12-05T22:16:25.352Z,6.20
2022-12-05T22:21:27.338Z,6.30
2022-12-05T22:26:27.639Z,6.20
2022-12-05T22:31:26.081Z,6.40
2022-12-05T22:44:25.732Z,6.30
2022-12-05T22:49:25.455Z,6.30
2022-12-05T22:54:27.298Z,6.40
2022-12-05T22:59:28.374Z,6.20
2022-12-05T23:04:28.049Z,6.20
2022-12-05T23:16:26.246Z,6.30
2022-12-05T23:21:28.474Z,6.30
2022-12-05T23:26:32.096Z,6.30
2022-12-05T23:31:30.431Z,6.50
2022-12-05T23:36:29.992Z,6.80
2022-12-05T23:41:28.410Z,6.60
2022-12-05T23:46:28.423Z,6.30
2022-12-05T23:51:29.688Z,6.20
2022-12-05T23:56:30.034Z,6.20
